Terminal Aerodrome Forecast
Issued by NWS

Home | Current Version | Previous Version | Graphics & Text | Print | Product List | Glossary On
Versions: 1 2 3 4 5 6 7 8 9 10 11 12 13 14 15 16 17 18 19 20 21 22 23 24 25 26 27 28 29
271
FTUS43 KABR 102302 AAD
TAFATY
TAF AMD
KATY 102302Z 1023/1118 09009KT P6SM OVC015
     FM110600 VRB06KT 3SM BR FEW030
      TEMPO 1108/1112 1SM BR SCT007
     FM111200 16007KT 3SM BR BKN007=

USA.gov is the U.S. government's official web portal to all federal, state and local government web resources and services.